createdAt,value
2022-12-03T00:00:47.229Z,20.20
2022-12-03T00:01:46.677Z,19.60
2022-12-03T00:02:46.738Z,20.60
2022-12-03T00:03:46.862Z,20.40
2022-12-03T00:04:46.648Z,20.90
2022-12-03T00:05:49.073Z,20.80
2022-12-03T00:06:48.325Z,20.90
2022-12-03T00:07:46.730Z,19.30
2022-12-03T00:08:46.637Z,20.60
2022-12-03T00:09:46.586Z,20.80
2022-12-03T00:10:47.313Z,19.00
2022-12-03T00:11:46.602Z,20.10
2022-12-03T00:12:47.249Z,20.90
2022-12-03T00:13:46.658Z,20.00
2022-12-03T00:14:46.542Z,20.80
2022-12-03T00:15:46.589Z,19.50
2022-12-03T00:16:46.513Z,21.10
2022-12-03T00:17:46.475Z,20.50
2022-12-03T00:18:47.312Z,20.80
2022-12-03T00:19:46.515Z,19.70
2022-12-03T00:20:46.454Z,20.60
2022-12-03T00:21:47.307Z,19.80
2022-12-03T00:22:46.466Z,19.50
2022-12-03T00:23:46.512Z,20.70
2022-12-03T00:24:46.440Z,20.10
2022-12-03T00:25:46.419Z,18.90
2022-12-03T00:26:47.326Z,20.30
2022-12-03T00:27:46.391Z,20.40
2022-12-03T00:28:46.375Z,20.20
2022-12-03T00:29:47.279Z,19.20
2022-12-03T00:30:47.455Z,19.10
2022-12-03T00:31:46.335Z,19.40
2022-12-03T00:32:46.348Z,19.40
2022-12-03T00:33:46.345Z,18.90
2022-12-03T00:34:46.331Z,18.80
2022-12-03T00:35:46.495Z,18.70
2022-12-03T00:36:47.282Z,18.10
2022-12-03T00:37:46.287Z,18.90
2022-12-03T00:38:46.795Z,19.30
2022-12-03T00:39:46.252Z,19.90
2022-12-03T00:40:46.253Z,19.40
2022-12-03T00:41:46.223Z,20.20
2022-12-03T00:42:46.216Z,18.90
2022-12-03T00:43:46.222Z,19.50
2022-12-03T00:44:46.208Z,19.00
2022-12-03T00:45:46.188Z,18.70
2022-12-03T00:46:46.270Z,19.10
2022-12-03T00:47:46.269Z,19.50
2022-12-03T00:48:46.149Z,20.40
2022-12-03T00:49:46.165Z,20.40
2022-12-03T00:50:47.706Z,20.60
2022-12-03T00:51:46.141Z,21.10
2022-12-03T00:52:46.121Z,20.40
2022-12-03T00:53:46.116Z,21.10
2022-12-03T00:54:46.097Z,20.60
2022-12-03T00:55:46.085Z,20.80
2022-12-03T00:56:46.787Z,21.10
2022-12-03T00:57:46.066Z,20.10
2022-12-03T00:58:46.045Z,20.40
2022-12-03T00:59:46.023Z,20.70
2022-12-03T01:00:46.036Z,20.90
2022-12-03T01:01:46.304Z,20.50
2022-12-03T01:02:46.770Z,20.90
2022-12-03T01:03:46.015Z,21.40
2022-12-03T01:04:46.028Z,21.70
2022-12-03T01:05:46.034Z,21.50
2022-12-03T01:06:45.950Z,19.80
2022-12-03T01:07:46.022Z,21.70
2022-12-03T01:08:46.065Z,22.00
2022-12-03T01:09:45.929Z,22.40
2022-12-03T01:10:45.929Z,22.80
2022-12-03T01:11:45.926Z,21.40
2022-12-03T01:12:45.922Z,22.60
2022-12-03T01:13:45.883Z,23.20
2022-12-03T01:14:45.874Z,23.40
2022-12-03T01:15:45.961Z,22.50
2022-12-03T01:16:45.846Z,23.10
2022-12-03T01:17:45.854Z,22.90
2022-12-03T01:18:45.842Z,23.30
2022-12-03T01:19:48.459Z,23.90
2022-12-03T01:20:46.959Z,23.20
2022-12-03T01:21:45.833Z,23.40
2022-12-03T01:22:45.800Z,23.10
2022-12-03T01:23:45.785Z,23.80
2022-12-03T01:24:45.768Z,22.40
2022-12-03T01:25:45.890Z,23.20
2022-12-03T01:26:45.745Z,23.10
2022-12-03T01:27:45.750Z,21.90
2022-12-03T01:28:46.675Z,23.30
2022-12-03T01:29:45.888Z,22.70
2022-12-03T01:30:45.770Z,23.70
2022-12-03T01:31:46.264Z,22.10
2022-12-03T01:32:45.754Z,22.60
2022-12-03T01:33:45.676Z,22.60
2022-12-03T01:34:46.139Z,22.80
2022-12-03T01:35:45.664Z,23.00
2022-12-03T01:36:45.694Z,22.50
2022-12-03T01:37:45.623Z,23.70
2022-12-03T01:38:45.684Z,22.60
2022-12-03T01:39:45.610Z,22.80
2022-12-03T01:40:46.160Z,22.70
2022-12-03T01:41:46.175Z,22.00
2022-12-03T01:42:46.195Z,21.30
2022-12-03T01:43:45.572Z,21.90
2022-12-03T01:44:45.619Z,22.20
2022-12-03T01:45:45.539Z,22.40
2022-12-03T01:46:46.243Z,22.30
2022-12-03T01:47:45.536Z,21.60
2022-12-03T01:48:45.696Z,22.00
2022-12-03T01:49:45.485Z,22.20
2022-12-03T01:50:45.535Z,22.00
2022-12-03T01:51:45.480Z,21.90
2022-12-03T01:52:45.556Z,22.60
2022-12-03T01:53:45.461Z,21.20
2022-12-03T01:54:46.315Z,21.20
2022-12-03T01:55:48.620Z,20.10
2022-12-03T01:56:46.756Z,21.50
2022-12-03T01:57:45.408Z,21.40
2022-12-03T01:58:45.646Z,21.60
2022-12-03T01:59:45.388Z,21.00
2022-12-03T02:00:45.590Z,21.00
2022-12-03T02:01:45.442Z,21.60
2022-12-03T02:02:45.789Z,21.00
2022-12-03T02:03:46.392Z,21.10
2022-12-03T02:04:45.600Z,20.90
2022-12-03T02:05:46.166Z,21.20
2022-12-03T02:06:45.537Z,20.70
2022-12-03T02:07:45.397Z,20.60
2022-12-03T02:08:46.192Z,20.80
2022-12-03T02:09:45.317Z,20.00
2022-12-03T02:10:45.376Z,21.20
2022-12-03T02:11:45.296Z,19.90
2022-12-03T02:12:45.657Z,20.00
2022-12-03T02:13:45.283Z,20.80
2022-12-03T02:14:45.781Z,19.90
2022-12-03T02:15:45.296Z,21.30
2022-12-03T02:16:46.168Z,20.60
2022-12-03T02:17:45.229Z,20.80
2022-12-03T02:18:46.167Z,20.70
2022-12-03T02:19:45.182Z,21.20
2022-12-03T02:20:45.171Z,20.70
2022-12-03T02:21:45.145Z,21.10
2022-12-03T02:22:45.752Z,21.10
2022-12-03T02:23:45.177Z,20.80
2022-12-03T02:24:45.129Z,21.20
2022-12-03T02:25:46.657Z,20.40
2022-12-03T02:26:46.250Z,20.20
2022-12-03T02:27:45.084Z,18.70
2022-12-03T02:28:45.075Z,19.40
2022-12-03T02:29:45.082Z,20.00
2022-12-03T02:30:45.659Z,20.30
2022-12-03T02:31:45.081Z,20.00
2022-12-03T02:32:45.082Z,19.30
2022-12-03T02:33:45.110Z,19.40
2022-12-03T02:34:45.061Z,18.80
2022-12-03T02:35:45.082Z,19.00
2022-12-03T02:36:45.150Z,19.20
2022-12-03T02:37:45.714Z,19.50
2022-12-03T02:38:44.973Z,19.10
2022-12-03T02:39:45.653Z,20.50
2022-12-03T02:40:45.054Z,20.10
2022-12-03T02:41:45.042Z,20.50
2022-12-03T02:42:44.955Z,19.70
2022-12-03T02:43:45.922Z,18.80
2022-12-03T02:44:44.915Z,20.40
2022-12-03T02:45:45.042Z,20.00
2022-12-03T02:46:44.957Z,20.60
2022-12-03T02:47:45.068Z,20.10
2022-12-03T02:48:44.855Z,20.80
2022-12-03T02:49:44.898Z,21.40
2022-12-03T02:50:44.839Z,20.40
2022-12-03T02:51:45.746Z,21.10
2022-12-03T02:52:44.899Z,20.70
2022-12-03T02:53:44.847Z,20.80
2022-12-03T02:54:44.811Z,21.40
2022-12-03T02:55:44.947Z,21.90
2022-12-03T02:56:46.252Z,21.30
2022-12-03T02:57:45.856Z,21.10
2022-12-03T02:58:44.907Z,20.70
2022-12-03T02:59:44.734Z,21.20
2022-12-03T03:00:44.813Z,21.20
2022-12-03T03:01:44.855Z,21.50
2022-12-03T03:02:44.806Z,21.10
2022-12-03T03:03:44.744Z,21.00
2022-12-03T03:04:44.847Z,21.40
2022-12-03T03:05:45.687Z,21.30
2022-12-03T03:06:44.663Z,20.80
2022-12-03T03:07:45.718Z,19.90
2022-12-03T03:08:44.669Z,21.30
2022-12-03T03:09:46.120Z,22.10
2022-12-03T03:10:44.762Z,20.30
2022-12-03T03:11:44.635Z,20.90
2022-12-03T03:12:45.172Z,21.50
2022-12-03T03:13:45.144Z,21.10
2022-12-03T03:14:44.607Z,20.60
2022-12-03T03:15:44.612Z,20.60
2022-12-03T03:16:44.773Z,21.30
2022-12-03T03:17:44.687Z,21.20
2022-12-03T03:18:44.521Z,21.00
2022-12-03T03:19:45.311Z,21.20
2022-12-03T03:20:45.154Z,20.90
2022-12-03T03:21:45.136Z,20.20
2022-12-03T03:22:44.488Z,22.20
2022-12-03T03:23:44.527Z,21.50
2022-12-03T03:24:44.600Z,21.70
2022-12-03T03:25:44.476Z,21.70
2022-12-03T03:26:45.469Z,21.70
2022-12-03T03:27:45.468Z,22.50
2022-12-03T03:28:44.545Z,21.70
2022-12-03T03:29:45.144Z,22.50
2022-12-03T03:30:45.141Z,21.50
2022-12-03T03:31:45.440Z,20.50
2022-12-03T03:32:44.468Z,21.10
2022-12-03T03:33:44.417Z,21.70
2022-12-03T03:34:44.395Z,21.50
2022-12-03T03:35:44.425Z,21.10
2022-12-03T03:36:44.493Z,21.30
2022-12-03T03:37:45.141Z,21.20
2022-12-03T03:38:44.352Z,21.00
2022-12-03T03:39:44.375Z,21.70
2022-12-03T03:40:44.389Z,21.70
2022-12-03T03:41:44.416Z,20.90
2022-12-03T03:42:44.292Z,21.10
2022-12-03T03:43:44.432Z,21.30
2022-12-03T03:44:44.290Z,21.40
2022-12-03T03:45:44.310Z,20.50
2022-12-03T03:46:44.398Z,21.00
2022-12-03T03:47:44.210Z,21.40
2022-12-03T03:48:44.214Z,21.10
2022-12-03T03:49:44.334Z,20.70
2022-12-03T03:50:44.200Z,20.90
2022-12-03T03:51:44.829Z,21.70
2022-12-03T03:52:44.249Z,21.20
2022-12-03T03:53:44.295Z,21.60
2022-12-03T03:54:44.162Z,21.30
2022-12-03T03:55:45.121Z,22.20
2022-12-03T03:56:44.141Z,22.70
2022-12-03T03:57:44.162Z,21.40
2022-12-03T03:58:44.729Z,21.70
2022-12-03T03:59:44.246Z,22.10
2022-12-03T04:00:44.145Z,22.10
2022-12-03T04:01:44.118Z,21.10
2022-12-03T04:02:44.078Z,21.90
2022-12-03T04:03:44.208Z,21.80
2022-12-03T04:04:44.017Z,22.80
2022-12-03T04:05:45.033Z,22.60
2022-12-03T04:06:44.062Z,22.00
2022-12-03T04:07:44.066Z,23.10
2022-12-03T04:08:44.003Z,22.70
2022-12-03T04:09:44.002Z,23.40
2022-12-03T04:10:43.993Z,23.20
2022-12-03T04:11:44.111Z,22.70
2022-12-03T04:12:44.008Z,23.60
2022-12-03T04:13:43.976Z,23.70
2022-12-03T04:14:43.998Z,23.10
2022-12-03T04:15:43.967Z,23.60
2022-12-03T04:16:43.976Z,23.20
2022-12-03T04:17:44.030Z,23.20
2022-12-03T04:18:43.954Z,23.30
2022-12-03T04:19:43.905Z,24.00
2022-12-03T04:20:43.855Z,23.00
2022-12-03T04:21:43.849Z,23.80
2022-12-03T04:22:43.843Z,23.20
2022-12-03T04:23:43.862Z,24.00
2022-12-03T04:24:43.866Z,23.50
2022-12-03T04:25:43.830Z,24.30
2022-12-03T04:26:43.906Z,23.90
2022-12-03T04:27:43.767Z,24.10
2022-12-03T04:28:43.799Z,23.20
2022-12-03T04:29:43.766Z,24.00
2022-12-03T04:30:43.826Z,24.30
2022-12-03T04:31:43.771Z,25.20
2022-12-03T04:32:43.740Z,24.00
2022-12-03T04:33:43.834Z,24.30
2022-12-03T04:34:43.728Z,23.90
2022-12-03T04:35:45.919Z,23.20
2022-12-03T04:36:43.686Z,24.90
2022-12-03T04:37:44.255Z,23.90
2022-12-03T04:38:43.695Z,25.60
2022-12-03T04:39:43.647Z,25.50
2022-12-03T04:40:43.656Z,25.50
2022-12-03T04:41:43.656Z,25.20
2022-12-03T04:42:43.627Z,25.10
2022-12-03T04:43:43.627Z,24.20
2022-12-03T04:44:43.626Z,25.00
2022-12-03T04:45:43.668Z,25.90
2022-12-03T04:46:43.578Z,25.60
2022-12-03T04:47:43.566Z,24.30
2022-12-03T04:48:43.586Z,24.80
2022-12-03T04:49:43.587Z,24.50
2022-12-03T04:50:43.520Z,24.50
2022-12-03T04:51:43.541Z,24.70
2022-12-03T04:52:43.512Z,25.00
2022-12-03T04:53:46.304Z,26.30
2022-12-03T04:54:44.489Z,25.00
2022-12-03T04:55:43.508Z,25.00
2022-12-03T04:56:43.456Z,25.80
2022-12-03T04:57:43.490Z,25.60
2022-12-03T04:58:43.488Z,25.10
2022-12-03T04:59:43.464Z,25.10
2022-12-03T05:00:43.428Z,25.40
2022-12-03T05:01:43.528Z,24.00
2022-12-03T05:02:43.468Z,25.20
2022-12-03T05:03:43.419Z,25.00
2022-12-03T05:04:43.375Z,25.50
2022-12-03T05:05:43.401Z,25.30
2022-12-03T05:06:43.361Z,25.80
2022-12-03T05:07:43.453Z,26.50
2022-12-03T05:08:43.337Z,25.10
2022-12-03T05:09:43.336Z,25.70
2022-12-03T05:10:44.168Z,25.70
2022-12-03T05:11:43.313Z,25.50
2022-12-03T05:12:43.299Z,25.80
2022-12-03T05:13:43.423Z,26.20
2022-12-03T05:14:43.272Z,26.50
2022-12-03T05:15:43.256Z,26.10
2022-12-03T05:16:43.309Z,27.10
2022-12-03T05:17:43.245Z,26.20
2022-12-03T05:18:43.248Z,27.90
2022-12-03T05:19:43.223Z,25.60
2022-12-03T05:20:45.800Z,25.80
2022-12-03T05:21:43.221Z,26.50
2022-12-03T05:22:43.197Z,26.70
2022-12-03T05:23:43.749Z,26.10
2022-12-03T05:24:43.196Z,25.70
2022-12-03T05:25:43.180Z,25.80
2022-12-03T05:26:43.205Z,24.80
2022-12-03T05:27:43.146Z,25.40
2022-12-03T05:28:44.129Z,25.00
2022-12-03T05:29:43.123Z,25.80
2022-12-03T05:30:43.270Z,25.50
2022-12-03T05:31:43.118Z,26.60
2022-12-03T05:32:43.074Z,26.00
2022-12-03T05:33:44.558Z,25.80
2022-12-03T05:34:44.066Z,26.30
2022-12-03T05:35:43.060Z,26.40
2022-12-03T05:36:43.046Z,25.90
2022-12-03T05:37:43.031Z,26.00
2022-12-03T05:38:43.057Z,24.90
2022-12-03T05:39:43.250Z,25.10
2022-12-03T05:40:43.003Z,25.50
2022-12-03T05:41:43.077Z,24.60
2022-12-03T05:42:42.989Z,23.90
2022-12-03T05:43:42.983Z,25.00
2022-12-03T05:44:42.968Z,25.30
2022-12-03T05:45:43.002Z,25.40
2022-12-03T05:46:43.017Z,24.90
2022-12-03T05:47:42.929Z,22.90
2022-12-03T05:48:42.918Z,23.60
2022-12-03T05:49:42.906Z,23.50
2022-12-03T05:50:42.902Z,23.90
2022-12-03T05:51:42.878Z,23.30
2022-12-03T05:52:42.890Z,23.60
2022-12-03T05:53:42.875Z,23.80
2022-12-03T05:54:42.848Z,24.30
2022-12-03T05:55:42.842Z,23.60
2022-12-03T05:56:42.858Z,24.70
2022-12-03T05:57:42.835Z,23.40
2022-12-03T05:58:42.823Z,24.70
2022-12-03T05:59:42.799Z,23.80
2022-12-03T06:00:43.184Z,23.60
2022-12-03T06:01:43.726Z,24.00
2022-12-03T06:02:42.901Z,24.90
2022-12-03T06:03:42.883Z,24.60
2022-12-03T06:04:42.750Z,24.30
2022-12-03T06:05:42.743Z,24.30
2022-12-03T06:06:42.761Z,24.20
2022-12-03T06:07:42.764Z,23.90
2022-12-03T06:08:42.723Z,24.80
2022-12-03T06:09:42.707Z,24.40
2022-12-03T06:10:42.691Z,24.40
2022-12-03T06:11:42.668Z,24.30
2022-12-03T06:12:42.660Z,24.90
2022-12-03T06:13:42.665Z,24.40
2022-12-03T06:14:42.657Z,24.40
2022-12-03T06:15:44.135Z,24.10
2022-12-03T06:16:43.669Z,24.40
2022-12-03T06:17:42.603Z,24.40
2022-12-03T06:18:42.600Z,24.50
2022-12-03T06:19:42.596Z,24.30
2022-12-03T06:20:42.632Z,23.60
2022-12-03T06:21:42.592Z,24.00
2022-12-03T06:22:42.559Z,24.90
2022-12-03T06:23:42.537Z,24.10
2022-12-03T06:24:42.529Z,23.70
2022-12-03T06:25:42.533Z,24.10
2022-12-03T06:26:42.556Z,23.40
2022-12-03T06:27:42.523Z,23.80
2022-12-03T06:28:42.516Z,24.10
2022-12-03T06:29:42.496Z,23.90
2022-12-03T06:30:42.492Z,24.40
2022-12-03T06:31:42.513Z,23.70
2022-12-03T06:32:42.438Z,24.00
2022-12-03T06:33:42.449Z,23.90
2022-12-03T06:34:42.425Z,24.10
2022-12-03T06:35:42.406Z,23.80
2022-12-03T06:36:42.400Z,23.90
2022-12-03T06:37:42.403Z,23.30
2022-12-03T06:38:42.369Z,24.00
2022-12-03T06:39:42.413Z,23.50
2022-12-03T06:40:42.342Z,22.10
2022-12-03T06:41:42.364Z,22.90
2022-12-03T06:42:42.329Z,23.30
2022-12-03T06:43:42.340Z,23.80
2022-12-03T06:44:42.369Z,24.20
2022-12-03T06:45:47.495Z,24.60
2022-12-03T06:46:44.384Z,24.10
2022-12-03T06:47:42.291Z,22.80
2022-12-03T06:48:42.275Z,23.80
2022-12-03T06:49:42.272Z,23.00
2022-12-03T06:50:42.273Z,22.60
2022-12-03T06:51:42.243Z,22.80
2022-12-03T06:52:42.226Z,22.60
2022-12-03T06:53:42.218Z,22.10
2022-12-03T06:54:42.221Z,22.70
2022-12-03T06:55:42.201Z,22.00
2022-12-03T06:56:45.331Z,22.90
2022-12-03T06:57:43.177Z,23.20
2022-12-03T06:58:42.165Z,22.80
2022-12-03T06:59:42.154Z,22.50
2022-12-03T07:00:42.178Z,23.20
2022-12-03T07:01:42.222Z,22.50
2022-12-03T07:02:42.151Z,24.10
2022-12-03T07:03:42.159Z,23.70
2022-12-03T07:04:46.263Z,22.70
2022-12-03T07:05:43.091Z,22.80
2022-12-03T07:06:42.094Z,22.30
2022-12-03T07:07:42.140Z,23.60
2022-12-03T07:08:42.082Z,23.90
2022-12-03T07:09:42.603Z,22.70
2022-12-03T07:10:42.047Z,22.80
2022-12-03T07:11:42.025Z,23.60
2022-12-03T07:12:42.038Z,23.50
2022-12-03T07:13:42.025Z,23.30
2022-12-03T07:14:41.995Z,23.10
2022-12-03T07:15:42.065Z,22.90
2022-12-03T07:16:42.087Z,23.10
2022-12-03T07:17:41.958Z,24.10
2022-12-03T07:18:41.979Z,23.40
2022-12-03T07:19:41.931Z,24.00
2022-12-03T07:20:41.994Z,23.90
2022-12-03T07:21:41.916Z,23.30
2022-12-03T07:22:41.951Z,24.10
2022-12-03T07:23:41.923Z,23.30
2022-12-03T07:24:41.888Z,23.60
2022-12-03T07:25:41.997Z,24.20
2022-12-03T07:26:41.905Z,23.40
2022-12-03T07:27:41.988Z,23.00
2022-12-03T07:28:41.853Z,23.50
2022-12-03T07:29:41.856Z,23.80
2022-12-03T07:30:41.839Z,22.70
2022-12-03T07:31:41.848Z,23.80
2022-12-03T07:32:41.848Z,23.70
2022-12-03T07:33:41.784Z,23.80
2022-12-03T07:34:41.852Z,25.10
2022-12-03T07:35:41.760Z,24.50
2022-12-03T07:36:41.774Z,23.40
2022-12-03T07:37:41.753Z,24.60
2022-12-03T07:38:41.743Z,25.00
2022-12-03T07:39:41.742Z,24.00
2022-12-03T07:40:41.775Z,24.40
2022-12-03T07:41:41.704Z,23.80
2022-12-03T07:42:41.712Z,23.30
2022-12-03T07:43:41.711Z,24.50
2022-12-03T07:44:41.655Z,24.80
2022-12-03T07:45:42.748Z,24.70
2022-12-03T07:46:41.779Z,23.80
2022-12-03T07:47:41.866Z,25.00
2022-12-03T07:48:42.180Z,25.00
2022-12-03T07:49:41.660Z,24.60
2022-12-03T07:50:41.606Z,24.60
2022-12-03T07:51:41.613Z,24.50
2022-12-03T07:52:41.617Z,25.40
2022-12-03T07:53:41.573Z,25.10
2022-12-03T07:54:41.569Z,25.00
2022-12-03T07:55:41.561Z,25.20
2022-12-03T07:56:41.572Z,23.90
2022-12-03T07:57:42.269Z,25.90
2022-12-03T07:58:42.174Z,25.90
2022-12-03T07:59:41.526Z,25.50
2022-12-03T08:00:42.581Z,25.50
2022-12-03T08:01:41.507Z,26.10
2022-12-03T08:02:41.557Z,27.80
2022-12-03T08:03:41.453Z,25.10
2022-12-03T08:04:41.453Z,26.40
2022-12-03T08:05:41.478Z,26.60
2022-12-03T08:06:41.433Z,26.90
2022-12-03T08:07:41.493Z,25.90
2022-12-03T08:08:41.446Z,27.10
2022-12-03T08:09:41.401Z,26.00
2022-12-03T08:10:41.413Z,26.40
2022-12-03T08:11:41.408Z,25.60
2022-12-03T08:12:41.364Z,26.00
2022-12-03T08:13:41.338Z,24.70
2022-12-03T08:14:41.327Z,27.40
2022-12-03T08:15:41.363Z,25.20
2022-12-03T08:16:41.510Z,26.80
2022-12-03T08:17:41.303Z,25.70
2022-12-03T08:18:41.311Z,27.40
2022-12-03T08:19:41.274Z,27.70
2022-12-03T08:20:41.278Z,27.70
2022-12-03T08:21:41.282Z,27.50
2022-12-03T08:22:41.275Z,27.80
2022-12-03T08:23:41.267Z,28.90
2022-12-03T08:24:41.247Z,28.00
2022-12-03T08:25:41.208Z,28.40
2022-12-03T08:26:41.218Z,29.30
2022-12-03T08:27:41.324Z,28.50
2022-12-03T08:28:41.207Z,27.70
2022-12-03T08:29:41.192Z,28.40
2022-12-03T08:30:41.267Z,28.20
2022-12-03T08:31:41.193Z,28.60
2022-12-03T08:32:41.152Z,29.50
2022-12-03T08:33:42.693Z,29.10
2022-12-03T08:34:41.282Z,28.30
2022-12-03T08:35:41.111Z,27.40
2022-12-03T08:36:41.099Z,28.70
2022-12-03T08:37:41.090Z,29.00
2022-12-03T08:38:41.099Z,28.30
2022-12-03T08:39:41.053Z,28.50
2022-12-03T08:40:41.109Z,28.90
2022-12-03T08:41:41.099Z,28.90
2022-12-03T08:42:41.075Z,27.60
2022-12-03T08:43:41.029Z,28.20
2022-12-03T08:44:41.028Z,29.60
2022-12-03T08:45:41.150Z,29.10
2022-12-03T08:46:40.981Z,28.40
2022-12-03T08:47:40.970Z,28.60
2022-12-03T08:48:46.972Z,29.00
2022-12-03T08:49:42.958Z,28.70
2022-12-03T08:50:40.943Z,29.40
2022-12-03T08:51:40.939Z,29.00
2022-12-03T08:52:40.935Z,29.20
2022-12-03T08:53:40.934Z,28.80
2022-12-03T08:54:40.939Z,29.50
2022-12-03T08:55:40.948Z,29.30
2022-12-03T08:56:40.874Z,29.90
2022-12-03T08:57:41.116Z,30.70
2022-12-03T08:58:40.895Z,27.80
2022-12-03T08:59:45.317Z,29.40
2022-12-03T09:00:41.865Z,29.10
2022-12-03T09:01:40.887Z,28.80
2022-12-03T09:02:40.823Z,28.80
2022-12-03T09:03:40.867Z,28.90
2022-12-03T09:04:40.921Z,29.10
2022-12-03T09:05:40.763Z,29.90
2022-12-03T09:06:40.776Z,28.90
2022-12-03T09:07:40.830Z,28.20
2022-12-03T09:08:40.758Z,28.50
2022-12-03T09:09:40.864Z,29.90
2022-12-03T09:10:40.739Z,28.20
2022-12-03T09:11:40.739Z,28.90
2022-12-03T09:12:40.702Z,30.50
2022-12-03T09:13:40.698Z,30.50
2022-12-03T09:14:40.687Z,29.30
2022-12-03T09:15:41.009Z,29.50
2022-12-03T09:16:40.771Z,28.40
2022-12-03T09:17:43.188Z,30.60
2022-12-03T09:18:40.783Z,30.10
2022-12-03T09:19:45.681Z,29.40
2022-12-03T09:20:42.699Z,29.10
2022-12-03T09:21:40.602Z,28.60
2022-12-03T09:22:40.591Z,28.10
2022-12-03T09:23:40.751Z,28.80
2022-12-03T09:24:40.612Z,29.20
2022-12-03T09:25:40.586Z,29.10
2022-12-03T09:26:40.612Z,29.80
2022-12-03T09:27:40.546Z,28.70
2022-12-03T09:28:42.352Z,27.80
2022-12-03T09:29:42.264Z,28.00
2022-12-03T09:30:40.520Z,28.40
2022-12-03T09:31:40.596Z,27.00
2022-12-03T09:32:40.508Z,29.30
2022-12-03T09:33:40.601Z,28.20
2022-12-03T09:34:41.552Z,26.80
2022-12-03T09:35:40.457Z,28.20
2022-12-03T09:36:41.011Z,27.30
2022-12-03T09:37:40.433Z,28.40
2022-12-03T09:38:45.987Z,26.60
2022-12-03T09:39:42.410Z,27.10
2022-12-03T09:40:40.424Z,27.20
2022-12-03T09:41:40.405Z,27.00
2022-12-03T09:42:40.401Z,27.50
2022-12-03T09:44:03.405Z,27.30
2022-12-03T09:44:42.344Z,27.00
2022-12-03T09:45:40.400Z,27.50
2022-12-03T09:46:40.401Z,27.20
2022-12-03T09:47:40.333Z,25.60
2022-12-03T09:48:40.309Z,25.40
2022-12-03T09:49:40.564Z,25.90
2022-12-03T09:50:40.292Z,25.10
2022-12-03T09:51:40.305Z,25.70
2022-12-03T09:52:40.268Z,26.80
2022-12-03T09:53:41.492Z,25.00
2022-12-03T09:54:46.858Z,25.90
2022-12-03T09:55:41.295Z,25.60
2022-12-03T09:56:40.238Z,26.50
2022-12-03T09:57:40.265Z,25.30
2022-12-03T09:58:41.170Z,26.50
2022-12-03T09:59:41.158Z,24.70
2022-12-03T10:00:40.318Z,25.60
2022-12-03T10:01:41.795Z,25.20
2022-12-03T10:02:40.205Z,25.70
2022-12-03T10:03:40.161Z,25.40
2022-12-03T10:04:40.216Z,25.80
2022-12-03T10:05:45.096Z,26.40
2022-12-03T10:06:45.786Z,26.70
2022-12-03T10:07:40.178Z,26.70
2022-12-03T10:08:40.674Z,26.40
2022-12-03T10:09:40.143Z,27.40
2022-12-03T10:10:40.069Z,26.10
2022-12-03T10:11:40.086Z,25.70
2022-12-03T10:12:40.676Z,24.40
2022-12-03T10:13:40.065Z,24.20
2022-12-03T10:14:40.089Z,23.50
2022-12-03T10:15:40.058Z,24.70
2022-12-03T10:16:40.247Z,25.00
2022-12-03T10:17:40.001Z,25.20
2022-12-03T10:18:41.821Z,25.70
2022-12-03T10:19:41.003Z,26.30
2022-12-03T10:20:39.955Z,27.30
2022-12-03T10:21:41.642Z,26.80
2022-12-03T10:22:39.962Z,28.00
2022-12-03T10:23:39.936Z,28.30
2022-12-03T10:24:39.954Z,28.20
2022-12-03T10:25:40.043Z,27.70
2022-12-03T10:26:39.982Z,27.80
2022-12-03T10:27:40.506Z,27.40
2022-12-03T10:28:40.646Z,27.00
2022-12-03T10:29:39.874Z,27.10
2022-12-03T10:30:39.948Z,27.00
2022-12-03T10:31:39.938Z,26.80
2022-12-03T10:32:39.866Z,26.20
2022-12-03T10:33:39.823Z,26.90
2022-12-03T10:34:39.815Z,28.20
2022-12-03T10:35:39.815Z,27.70
2022-12-03T10:36:39.804Z,27.00
2022-12-03T10:37:39.779Z,27.20
2022-12-03T10:38:39.779Z,27.00
2022-12-03T10:39:39.743Z,27.30
2022-12-03T10:40:39.737Z,26.20
2022-12-03T10:41:39.747Z,27.10
2022-12-03T10:42:39.748Z,26.90
2022-12-03T10:43:39.720Z,27.20
2022-12-03T10:44:39.690Z,27.10
2022-12-03T10:45:39.673Z,27.10
2022-12-03T10:46:39.875Z,27.70
2022-12-03T10:47:39.826Z,25.50
2022-12-03T10:48:39.653Z,26.10
2022-12-03T10:49:39.992Z,26.50
2022-12-03T10:50:39.636Z,26.60
2022-12-03T10:51:39.646Z,26.00
2022-12-03T10:52:39.692Z,26.30
2022-12-03T10:53:39.615Z,26.50
2022-12-03T10:54:39.609Z,27.30
2022-12-03T10:55:39.576Z,26.90
2022-12-03T10:56:39.585Z,27.10
2022-12-03T10:57:45.005Z,25.70
2022-12-03T10:58:41.548Z,27.50
2022-12-03T10:59:39.569Z,26.70
2022-12-03T11:00:39.529Z,28.10
2022-12-03T11:01:39.625Z,27.50
2022-12-03T11:02:39.536Z,27.60
2022-12-03T11:03:40.279Z,27.50
2022-12-03T11:04:39.574Z,26.30
2022-12-03T11:05:40.176Z,27.60
2022-12-03T11:06:40.714Z,27.70
2022-12-03T11:07:39.507Z,27.90
2022-12-03T11:08:39.448Z,26.50
2022-12-03T11:09:39.424Z,26.40
2022-12-03T11:10:39.453Z,26.30
2022-12-03T11:11:39.479Z,26.60
2022-12-03T11:12:39.417Z,26.30
2022-12-03T11:13:39.396Z,28.00
2022-12-03T11:14:39.373Z,26.70
2022-12-03T11:15:39.384Z,26.60
2022-12-03T11:16:39.351Z,27.10
2022-12-03T11:17:39.365Z,27.40
2022-12-03T11:18:39.361Z,26.20
2022-12-03T11:19:39.317Z,26.50
2022-12-03T11:20:39.298Z,27.50
2022-12-03T11:21:39.310Z,27.20
2022-12-03T11:22:39.305Z,27.10
2022-12-03T11:23:39.280Z,26.90
2022-12-03T11:24:39.293Z,28.60
2022-12-03T11:25:39.345Z,28.20
2022-12-03T11:26:39.245Z,28.90
2022-12-03T11:27:39.257Z,28.30
2022-12-03T11:28:39.293Z,28.40
2022-12-03T11:29:39.241Z,27.40
2022-12-03T11:30:40.302Z,27.90
2022-12-03T11:31:39.281Z,28.50
2022-12-03T11:32:39.181Z,26.90
2022-12-03T11:33:39.202Z,28.30
2022-12-03T11:34:39.182Z,28.70
2022-12-03T11:35:39.198Z,27.10
2022-12-03T11:37:00.721Z,27.00
2022-12-03T11:37:41.179Z,28.30
2022-12-03T11:38:39.180Z,27.20
2022-12-03T11:39:39.122Z,28.00
2022-12-03T11:40:39.810Z,26.60
2022-12-03T11:41:40.084Z,27.50
2022-12-03T11:42:39.059Z,26.50
2022-12-03T11:43:39.116Z,26.80
2022-12-03T11:44:39.043Z,27.70
2022-12-03T11:45:39.050Z,28.20
2022-12-03T11:46:39.259Z,28.00
2022-12-03T11:47:39.016Z,27.80
2022-12-03T11:48:39.047Z,27.10
2022-12-03T11:49:39.051Z,28.30
2022-12-03T11:50:40.408Z,27.30
2022-12-03T11:51:39.991Z,28.10
2022-12-03T11:52:39.071Z,28.30
2022-12-03T11:53:38.957Z,27.30
2022-12-03T11:54:39.919Z,26.90
2022-12-03T11:55:38.984Z,28.50
2022-12-03T11:56:38.930Z,27.70
2022-12-03T11:57:39.019Z,27.40
2022-12-03T11:58:39.288Z,27.30
2022-12-03T11:59:38.907Z,27.60
2022-12-03T12:00:38.872Z,27.80
2022-12-03T12:01:39.364Z,27.80
2022-12-03T12:02:38.945Z,27.40
2022-12-03T12:03:38.975Z,28.40
2022-12-03T12:04:39.881Z,28.10
2022-12-03T12:05:38.850Z,28.30
2022-12-03T12:06:38.810Z,27.60
2022-12-03T12:07:38.830Z,28.20
2022-12-03T12:08:38.766Z,29.40
2022-12-03T12:09:38.783Z,28.70
2022-12-03T12:10:38.752Z,28.10
2022-12-03T12:11:38.767Z,28.80
2022-12-03T12:12:38.758Z,28.10
2022-12-03T12:13:38.717Z,27.90
2022-12-03T12:14:38.954Z,27.50
2022-12-03T12:15:38.695Z,27.20
2022-12-03T12:16:38.772Z,28.00
2022-12-03T12:17:38.705Z,28.30
2022-12-03T12:18:38.676Z,27.60
2022-12-03T12:19:38.665Z,27.30
2022-12-03T12:20:38.640Z,27.30
2022-12-03T12:21:38.711Z,28.50
2022-12-03T12:22:38.645Z,27.60
2022-12-03T12:23:38.644Z,28.10
2022-12-03T12:24:38.642Z,28.30
2022-12-03T12:25:38.582Z,28.30
2022-12-03T12:26:38.581Z,27.50
2022-12-03T12:27:38.576Z,27.30
2022-12-03T12:28:38.631Z,27.80
2022-12-03T12:29:38.564Z,26.60
2022-12-03T12:30:38.553Z,28.30
2022-12-03T12:31:38.595Z,27.40
2022-12-03T12:32:38.526Z,26.70
2022-12-03T12:33:38.494Z,27.80
2022-12-03T12:34:38.926Z,27.30
2022-12-03T12:35:39.018Z,28.40
2022-12-03T12:36:38.469Z,27.50
2022-12-03T12:37:38.469Z,28.30
2022-12-03T12:38:39.107Z,29.30
2022-12-03T12:39:38.461Z,27.80
2022-12-03T12:40:38.458Z,27.90
2022-12-03T12:41:38.498Z,29.30
2022-12-03T12:42:38.418Z,28.90
2022-12-03T12:43:38.462Z,29.20
2022-12-03T12:44:38.469Z,28.80
2022-12-03T12:45:38.445Z,30.20
2022-12-03T12:46:47.779Z,28.70
2022-12-03T12:47:41.175Z,29.60
2022-12-03T12:48:40.286Z,29.40
2022-12-03T12:49:38.327Z,30.20
2022-12-03T12:50:38.382Z,29.10
2022-12-03T12:51:40.267Z,28.50
2022-12-03T12:52:38.283Z,27.50